Time;durP1;ratioP1;P1;durP2;ratioP2;P2;SDS_P1;SDS_P2;PMS_P1;PMS_P2;Temp;Humidity;BMP_temperature;BMP_pressure;BME280_temperature;BME280_humidity;BME280_pressure;Samples;Min_cycle;Max_cycle;Signal;HPM_P1;HPM_P2
2024/03/14 00:01:22;;;;;;;9.97;9.77;;;;;;;;;;5020885;28;20492;-72
2024/03/14 00:03:50;;;;;;;9.83;9.63;;;;;;;;;;5025196;28;20466;-71
2024/03/14 00:06:18;;;;;;;9.90;9.70;;;;;;;;;;5034767;28;20498;-72
2024/03/14 00:08:46;;;;;;;9.70;9.50;;;;;;;;;;5031523;28;20498;-73
2024/03/14 00:11:13;;;;;;;10.20;10.00;;;;;;;;;;5034607;28;20967;-71
2024/03/14 00:13:40;;;;;;;9.87;9.67;;;;;;;;;;5026029;28;20455;-71
2024/03/14 00:16:10;;;;;;;9.53;9.33;;;;;;;;;;5025520;28;20482;-71
2024/03/14 00:21:20;;;;;;;10.03;9.83;;;;;;;;;;5022298;28;20473;-72
2024/03/14 00:23:48;;;;;;;9.40;9.20;;;;;;;;;;5016968;28;20466;-72
2024/03/14 00:26:15;;;;;;;9.87;9.67;;;;;;;;;;5025503;28;20502;-71
2024/03/14 00:28:43;;;;;;;9.63;9.43;;;;;;;;;;5017558;28;20499;-73
2024/03/14 00:31:10;;;;;;;9.30;9.10;;;;;;;;;;5036672;28;20469;-72
2024/03/14 00:33:38;;;;;;;9.40;9.20;;;;;;;;;;5022857;28;20793;-71
2024/03/14 00:36:05;;;;;;;9.20;9.00;;;;;;;;;;5020380;28;20469;-72
2024/03/14 00:38:33;;;;;;;9.23;9.03;;;;;;;;;;5020515;28;20549;-72
2024/03/14 00:41:01;;;;;;;9.13;8.93;;;;;;;;;;5023348;28;20540;-72
2024/03/14 00:43:28;;;;;;;9.60;9.40;;;;;;;;;;5024433;28;20472;-72
2024/03/14 00:45:56;;;;;;;8.80;8.63;;;;;;;;;;5025876;28;20490;-73
2024/03/14 00:48:24;;;;;;;8.90;8.70;;;;;;;;;;5025483;28;20461;-71
2024/03/14 00:50:51;;;;;;;9.40;9.20;;;;;;;;;;5023833;28;20965;-72
2024/03/14 00:53:18;;;;;;;9.00;8.80;;;;;;;;;;5020353;28;20455;-72
2024/03/14 00:55:45;;;;;;;9.03;8.83;;;;;;;;;;5020377;28;20473;-73
2024/03/14 00:58:12;;;;;;;8.63;8.53;;;;;;;;;;5027884;28;20462;-72
2024/03/14 01:00:40;;;;;;;8.57;8.47;;;;;;;;;;4994699;28;20462;-72
2024/03/14 01:03:08;;;;;;;8.77;8.60;;;;;;;;;;5012636;28;20473;-71
2024/03/14 01:05:37;;;;;;;8.57;8.47;;;;;;;;;;5009104;28;21057;-72
2024/03/14 01:08:05;;;;;;;9.13;8.93;;;;;;;;;;5009372;28;20468;-72
2024/03/14 01:10:33;;;;;;;8.80;8.60;;;;;;;;;;4994389;28;20477;-70
2024/03/14 01:13:01;;;;;;;8.73;8.63;;;;;;;;;;5009831;28;20480;-72
2024/03/14 01:15:28;;;;;;;8.43;8.33;;;;;;;;;;4994320;28;20487;-73
2024/03/14 01:17:55;;;;;;;8.57;8.47;;;;;;;;;;4994541;28;20474;-72
2024/03/14 01:20:23;;;;;;;8.50;8.40;;;;;;;;;;5011401;28;21144;-71
2024/03/14 01:22:50;;;;;;;8.37;8.27;;;;;;;;;;4993709;28;21417;-73
2024/03/14 01:25:18;;;;;;;8.37;8.27;;;;;;;;;;4994119;28;20598;-72
2024/03/14 01:27:45;;;;;;;8.50;8.40;;;;;;;;;;5011880;28;20471;-72
2024/03/14 01:30:12;;;;;;;8.70;8.60;;;;;;;;;;4994188;28;20608;-73
2024/03/14 01:32:40;;;;;;;8.10;8.00;;;;;;;;;;4992292;28;20467;-71
2024/03/14 01:35:08;;;;;;;9.07;8.87;;;;;;;;;;4993908;28;20467;-72
2024/03/14 01:37:35;;;;;;;8.83;8.67;;;;;;;;;;5009385;28;20465;-71
2024/03/14 01:40:03;;;;;;;8.20;8.10;;;;;;;;;;5008748;28;20466;-72
2024/03/14 01:42:31;;;;;;;8.50;8.40;;;;;;;;;;4993948;28;21193;-72
2024/03/14 01:44:59;;;;;;;9.00;8.80;;;;;;;;;;5010461;28;20465;-71
2024/03/14 01:47:27;;;;;;;8.87;8.67;;;;;;;;;;4994168;28;21039;-71
2024/03/14 01:49:55;;;;;;;8.77;8.63;;;;;;;;;;5010036;28;21025;-71
2024/03/14 01:52:24;;;;;;;8.90;8.70;;;;;;;;;;4991524;28;20474;-72
2024/03/14 01:54:51;;;;;;;9.53;9.33;;;;;;;;;;5010187;28;20520;-72
2024/03/14 01:57:19;;;;;;;9.50;9.30;;;;;;;;;;5009645;28;20457;-71
2024/03/14 01:59:49;;;;;;;9.20;9.00;;;;;;;;;;5011034;28;20884;-73
2024/03/14 02:02:17;;;;;;;9.00;8.80;;;;;;;;;;5027932;28;20628;-72
2024/03/14 02:04:45;;;;;;;8.53;8.43;;;;;;;;;;5022718;28;20473;-72
2024/03/14 02:07:13;;;;;;;9.00;8.80;;;;;;;;;;5024006;28;20549;-71
2024/03/14 02:09:41;;;;;;;8.50;8.40;;;;;;;;;;5022529;28;20488;-73
2024/03/14 02:12:08;;;;;;;8.53;8.43;;;;;;;;;;5021471;28;20523;-73
2024/03/14 02:14:36;;;;;;;8.20;8.10;;;;;;;;;;5027979;28;20475;-72
2024/03/14 02:17:04;;;;;;;8.87;8.67;;;;;;;;;;5027960;28;20552;-71
2024/03/14 02:19:32;;;;;;;8.07;7.97;;;;;;;;;;5014883;28;20449;-72
2024/03/14 02:21:59;;;;;;;8.60;8.50;;;;;;;;;;5021967;28;20490;-71
2024/03/14 02:24:27;;;;;;;8.47;8.37;;;;;;;;;;5023068;28;20470;-72
2024/03/14 02:26:54;;;;;;;9.13;8.93;;;;;;;;;;5019180;28;20571;-72
2024/03/14 02:29:21;;;;;;;8.43;8.33;;;;;;;;;;5022681;28;20472;-72
2024/03/14 02:31:51;;;;;;;8.20;8.10;;;;;;;;;;5027481;28;20449;-71
2024/03/14 02:34:19;;;;;;;8.40;8.30;;;;;;;;;;5027827;28;20890;-71
2024/03/14 02:36:47;;;;;;;8.50;8.40;;;;;;;;;;5040385;28;20469;-72
2024/03/14 02:39:16;;;;;;;8.33;8.23;;;;;;;;;;5021446;28;20465;-71
2024/03/14 02:41:44;;;;;;;8.67;8.57;;;;;;;;;;5029542;28;20465;-72
2024/03/14 02:44:15;;;;;;;8.03;7.93;;;;;;;;;;5039572;28;20493;-71
2024/03/14 02:46:43;;;;;;;8.47;8.37;;;;;;;;;;5027045;28;20504;-73
2024/03/14 02:49:11;;;;;;;7.80;7.70;;;;;;;;;;5024677;28;21450;-71
2024/03/14 02:51:38;;;;;;;8.50;8.40;;;;;;;;;;5025855;28;20471;-71
2024/03/14 02:54:06;;;;;;;8.07;7.97;;;;;;;;;;5024012;28;20462;-72
2024/03/14 02:56:33;;;;;;;8.00;7.90;;;;;;;;;;5020461;28;20465;-72
2024/03/14 02:59:00;;;;;;;8.53;8.43;;;;;;;;;;5026195;28;20877;-72
2024/03/14 03:01:27;;;;;;;7.80;7.70;;;;;;;;;;5022703;28;20497;-72
2024/03/14 03:03:55;;;;;;;7.70;7.60;;;;;;;;;;5024823;28;20477;-71
2024/03/14 03:06:25;;;;;;;7.73;7.63;;;;;;;;;;5026097;28;20563;-71
2024/03/14 03:08:52;;;;;;;7.83;7.73;;;;;;;;;;5024391;28;20805;-72
2024/03/14 03:11:20;;;;;;;7.97;7.87;;;;;;;;;;5018555;28;20476;-73
2024/03/14 03:13:47;;;;;;;7.57;7.47;;;;;;;;;;5023860;28;20481;-71
2024/03/14 03:16:15;;;;;;;7.80;7.70;;;;;;;;;;5039884;28;20476;-71
2024/03/14 03:18:42;;;;;;;7.47;7.37;;;;;;;;;;5023333;28;20863;-72
2024/03/14 03:21:10;;;;;;;7.90;7.80;;;;;;;;;;5023423;28;20458;-73
2024/03/14 03:23:38;;;;;;;7.90;7.80;;;;;;;;;;5016541;28;20496;-71
2024/03/14 03:26:06;;;;;;;7.57;7.47;;;;;;;;;;5018156;28;20595;-72
2024/03/14 03:28:35;;;;;;;7.33;7.23;;;;;;;;;;5024350;28;20477;-72
2024/03/14 03:31:08;;;;;;;7.47;7.37;;;;;;;;;;5026943;28;20481;-71
2024/03/14 03:33:35;;;;;;;6.97;6.87;;;;;;;;;;5022235;28;20899;-72
2024/03/14 03:36:04;;;;;;;7.17;7.07;;;;;;;;;;5034914;28;20465;-71
2024/03/14 03:38:32;;;;;;;7.10;7.00;;;;;;;;;;5034190;28;20458;-72
2024/03/14 03:40:58;;;;;;;7.83;7.73;;;;;;;;;;5039882;28;20469;-72
2024/03/14 03:43:26;;;;;;;7.57;7.47;;;;;;;;;;5023324;28;20496;-72
2024/03/14 03:45:53;;;;;;;7.70;7.60;;;;;;;;;;5026258;28;20468;-72
2024/03/14 03:48:21;;;;;;;7.90;7.80;;;;;;;;;;5040354;28;20818;-72
2024/03/14 03:50:48;;;;;;;7.77;7.67;;;;;;;;;;5023344;28;20468;-71
2024/03/14 03:53:16;;;;;;;7.63;7.53;;;;;;;;;;5022047;28;21047;-72
2024/03/14 03:55:42;;;;;;;7.60;7.50;;;;;;;;;;5019602;28;20922;-73
2024/03/14 03:58:11;;;;;;;7.90;7.80;;;;;;;;;;5026662;28;20453;-70
2024/03/14 04:00:41;;;;;;;7.60;7.50;;;;;;;;;;5026354;28;20889;-72
2024/03/14 04:03:11;;;;;;;7.23;7.13;;;;;;;;;;5024770;28;20569;-72
2024/03/14 04:05:37;;;;;;;7.50;7.40;;;;;;;;;;5017449;28;20473;-71
2024/03/14 04:08:05;;;;;;;7.43;7.33;;;;;;;;;;5014819;28;21017;-72
2024/03/14 04:10:31;;;;;;;7.50;7.40;;;;;;;;;;5025108;28;20469;-72
2024/03/14 04:13:00;;;;;;;7.87;7.77;;;;;;;;;;5026202;28;20469;-72
2024/03/14 04:15:29;;;;;;;7.53;7.43;;;;;;;;;;5039665;28;20556;-72
2024/03/14 04:17:56;;;;;;;7.67;7.57;;;;;;;;;;5026692;28;20909;-73
2024/03/14 04:20:25;;;;;;;7.27;7.17;;;;;;;;;;5024101;28;20471;-71
2024/03/14 04:22:53;;;;;;;7.93;7.83;;;;;;;;;;5032062;28;20465;-71
2024/03/14 04:25:21;;;;;;;7.60;7.50;;;;;;;;;;5021024;28;20461;-72
2024/03/14 04:27:51;;;;;;;7.80;7.70;;;;;;;;;;5039170;28;20497;-70
2024/03/14 04:30:20;;;;;;;7.80;7.70;;;;;;;;;;5024841;28;20783;-73
2024/03/14 04:32:48;;;;;;;8.03;7.93;;;;;;;;;;5038269;28;20476;-72
2024/03/14 04:35:16;;;;;;;7.40;7.30;;;;;;;;;;5029526;28;20459;-71
2024/03/14 04:37:43;;;;;;;7.80;7.70;;;;;;;;;;5026626;28;20457;-72
2024/03/14 04:40:12;;;;;;;7.47;7.37;;;;;;;;;;5029852;28;20457;-71
2024/03/14 04:42:41;;;;;;;7.77;7.67;;;;;;;;;;5025013;28;20492;-70
2024/03/14 04:45:10;;;;;;;7.43;7.33;;;;;;;;;;5032366;28;20823;-72
2024/03/14 04:47:37;;;;;;;7.00;6.90;;;;;;;;;;5021079;28;20494;-71
2024/03/14 04:50:04;;;;;;;6.70;6.60;;;;;;;;;;5044760;28;20468;-72
2024/03/14 04:52:32;;;;;;;6.90;6.80;;;;;;;;;;5036101;28;20465;-72
2024/03/14 04:55:00;;;;;;;6.60;6.50;;;;;;;;;;5022164;28;20461;-71
2024/03/14 04:57:27;;;;;;;6.90;6.80;;;;;;;;;;5029586;28;20461;-71
2024/03/14 04:59:54;;;;;;;7.10;7.00;;;;;;;;;;5029479;28;20559;-70
2024/03/14 05:02:22;;;;;;;7.40;7.30;;;;;;;;;;5017198;28;20499;-71
2024/03/14 05:04:49;;;;;;;7.50;7.40;;;;;;;;;;5019748;28;20496;-72
2024/03/14 05:07:16;;;;;;;7.53;7.43;;;;;;;;;;5022385;28;20489;-71
2024/03/14 05:09:43;;;;;;;7.40;7.30;;;;;;;;;;5016081;28;20473;-70
2024/03/14 05:12:10;;;;;;;7.30;7.20;;;;;;;;;;5021092;28;20529;-72
2024/03/14 05:14:38;;;;;;;7.67;7.57;;;;;;;;;;5025353;28;20479;-70
2024/03/14 05:17:05;;;;;;;7.80;7.70;;;;;;;;;;5027693;28;20467;-72
2024/03/14 05:19:33;;;;;;;8.00;7.90;;;;;;;;;;5023660;28;20496;-73
2024/03/14 05:22:00;;;;;;;7.63;7.53;;;;;;;;;;5021088;28;20476;-72
2024/03/14 05:24:28;;;;;;;7.40;7.30;;;;;;;;;;5027171;28;20476;-71
2024/03/14 05:26:55;;;;;;;7.40;7.30;;;;;;;;;;5025003;28;20507;-71
2024/03/14 05:29:23;;;;;;;7.40;7.30;;;;;;;;;;5022245;28;20469;-72
2024/03/14 05:31:50;;;;;;;7.57;7.47;;;;;;;;;;5026777;28;20471;-72
2024/03/14 05:34:17;;;;;;;8.10;8.00;;;;;;;;;;5019602;28;20501;-70
2024/03/14 05:36:44;;;;;;;8.40;8.30;;;;;;;;;;5039434;28;20464;-72
2024/03/14 05:39:14;;;;;;;8.20;8.10;;;;;;;;;;5014592;28;20473;-72
2024/03/14 05:41:42;;;;;;;8.10;8.00;;;;;;;;;;5024618;28;20872;-72
2024/03/14 05:44:09;;;;;;;8.17;8.07;;;;;;;;;;5024921;28;20464;-72
2024/03/14 05:46:37;;;;;;;8.80;8.70;;;;;;;;;;5022060;28;20486;-72
2024/03/14 05:49:06;;;;;;;8.50;8.40;;;;;;;;;;5017188;28;20467;-71
2024/03/14 05:51:34;;;;;;;8.53;8.43;;;;;;;;;;5022412;28;20461;-72
2024/03/14 05:54:01;;;;;;;8.43;8.33;;;;;;;;;;5023369;28;20465;-70
2024/03/14 05:56:28;;;;;;;8.23;8.13;;;;;;;;;;5032997;28;20556;-71
2024/03/14 05:58:55;;;;;;;8.17;8.07;;;;;;;;;;5023611;28;20477;-72
2024/03/14 06:01:23;;;;;;;8.50;8.40;;;;;;;;;;5021668;28;20819;-70
2024/03/14 06:03:50;;;;;;;8.27;8.17;;;;;;;;;;5019201;28;20463;-71
2024/03/14 06:06:18;;;;;;;7.83;7.73;;;;;;;;;;5011241;28;20461;-70
2024/03/14 06:08:45;;;;;;;7.87;7.77;;;;;;;;;;5033897;28;20498;-72
2024/03/14 06:11:12;;;;;;;7.97;7.87;;;;;;;;;;5026484;28;20787;-71
2024/03/14 06:13:40;;;;;;;8.50;8.40;;;;;;;;;;5023413;28;20469;-72
2024/03/14 06:16:09;;;;;;;9.07;8.87;;;;;;;;;;5021288;28;20544;-70
2024/03/14 06:18:36;;;;;;;8.80;8.70;;;;;;;;;;5008792;28;20526;-70
2024/03/14 06:21:04;;;;;;;8.53;8.43;;;;;;;;;;5034015;28;20465;-71
2024/03/14 06:23:31;;;;;;;8.77;8.67;;;;;;;;;;5024366;28;20956;-70
2024/03/14 06:26:01;;;;;;;8.70;8.60;;;;;;;;;;5024209;28;20483;-71
2024/03/14 06:28:28;;;;;;;8.50;8.40;;;;;;;;;;5019148;28;20509;-72
2024/03/14 06:30:55;;;;;;;8.67;8.57;;;;;;;;;;5023841;28;20465;-70
2024/03/14 06:33:22;;;;;;;8.33;8.23;;;;;;;;;;5020298;28;21015;-71
2024/03/14 06:35:49;;;;;;;8.10;8.00;;;;;;;;;;5022424;28;20857;-71
2024/03/14 06:38:17;;;;;;;7.27;7.17;;;;;;;;;;5020643;28;20809;-70
2024/03/14 06:40:45;;;;;;;7.60;7.50;;;;;;;;;;5021934;28;20463;-71
2024/03/14 06:43:12;;;;;;;7.73;7.63;;;;;;;;;;5022191;28;20478;-71
2024/03/14 06:45:39;;;;;;;7.63;7.53;;;;;;;;;;5019356;28;20471;-70
2024/03/14 06:48:09;;;;;;;8.07;7.97;;;;;;;;;;5018376;28;20496;-71
2024/03/14 06:50:36;;;;;;;7.77;7.67;;;;;;;;;;5018961;28;20466;-71
2024/03/14 06:53:04;;;;;;;7.23;7.13;;;;;;;;;;5024478;28;20467;-72
2024/03/14 06:55:31;;;;;;;7.87;7.77;;;;;;;;;;5036043;28;20867;-71
2024/03/14 06:57:59;;;;;;;7.80;7.70;;;;;;;;;;5035767;28;20853;-71
2024/03/14 07:00:27;;;;;;;8.10;8.00;;;;;;;;;;5020799;28;20546;-70
2024/03/14 07:02:54;;;;;;;7.53;7.43;;;;;;;;;;5040855;28;20477;-71
2024/03/14 07:05:23;;;;;;;7.90;7.80;;;;;;;;;;5020330;28;20457;-72
2024/03/14 07:07:51;;;;;;;8.30;8.20;;;;;;;;;;5021329;28;20568;-71
2024/03/14 07:10:19;;;;;;;8.50;8.40;;;;;;;;;;5022018;28;20482;-71
2024/03/14 07:12:47;;;;;;;8.70;8.53;;;;;;;;;;5018474;28;20544;-70
2024/03/14 07:15:14;;;;;;;8.47;8.37;;;;;;;;;;5021241;28;20472;-71
2024/03/14 07:17:42;;;;;;;8.37;8.27;;;;;;;;;;5016954;28;20462;-71
2024/03/14 07:20:18;;;;;;;8.63;8.50;;;;;;;;;;5016785;28;20564;-72
2024/03/14 07:22:45;;;;;;;8.30;8.20;;;;;;;;;;5016037;28;20472;-71
2024/03/14 07:25:13;;;;;;;8.37;8.27;;;;;;;;;;5019071;28;20489;-71
2024/03/14 07:27:40;;;;;;;8.27;8.17;;;;;;;;;;5021587;28;20481;-71
2024/03/14 07:30:13;;;;;;;8.50;8.40;;;;;;;;;;5025108;28;20460;-71
2024/03/14 07:32:41;;;;;;;7.87;7.77;;;;;;;;;;5016665;28;20556;-71
2024/03/14 07:35:09;;;;;;;8.17;8.07;;;;;;;;;;5014905;28;20497;-72
2024/03/14 07:37:36;;;;;;;7.87;7.77;;;;;;;;;;5018131;28;20469;-71
2024/03/14 07:40:05;;;;;;;8.50;8.40;;;;;;;;;;5013819;28;21073;-70
2024/03/14 07:42:32;;;;;;;8.03;7.93;;;;;;;;;;5015490;28;20483;-71
2024/03/14 07:44:59;;;;;;;8.10;8.00;;;;;;;;;;5016161;28;20463;-71
2024/03/14 07:47:27;;;;;;;8.80;8.60;;;;;;;;;;5014830;28;20812;-71
2024/03/14 07:49:54;;;;;;;9.13;8.93;;;;;;;;;;5030103;28;20990;-72
2024/03/14 07:52:21;;;;;;;9.57;9.37;;;;;;;;;;5019152;28;20794;-72
2024/03/14 07:54:49;;;;;;;8.93;8.73;;;;;;;;;;5016380;28;20479;-71
2024/03/14 07:57:17;;;;;;;8.90;8.70;;;;;;;;;;5019759;28;20463;-72
2024/03/14 07:59:46;;;;;;;8.87;8.67;;;;;;;;;;5019267;28;20593;-71
2024/03/14 08:02:13;;;;;;;9.30;9.10;;;;;;;;;;5037466;28;20496;-72
2024/03/14 08:04:41;;;;;;;10.13;9.93;;;;;;;;;;5021843;28;20475;-72
2024/03/14 08:07:16;;;;;;;10.10;9.90;;;;;;;;;;5019738;28;20459;-73
2024/03/14 08:09:44;;;;;;;10.90;10.60;;;;;;;;;;5024206;28;20473;-71
2024/03/14 08:12:11;;;;;;;10.53;10.23;;;;;;;;;;5021169;28;20483;-70
2024/03/14 08:14:43;;;;;;;10.10;9.90;;;;;;;;;;5021651;28;20468;-71
2024/03/14 08:17:13;;;;;;;9.97;9.77;;;;;;;;;;5028209;28;20822;-70
2024/03/14 08:19:41;;;;;;;10.97;10.67;;;;;;;;;;5035137;28;21019;-70
2024/03/14 08:22:09;;;;;;;10.63;10.33;;;;;;;;;;5025530;28;20490;-71
2024/03/14 08:24:42;;;;;;;12.07;11.67;;;;;;;;;;5024513;28;20485;-71
2024/03/14 08:27:10;;;;;;;11.60;11.30;;;;;;;;;;5027777;28;20516;-72
2024/03/14 08:29:37;;;;;;;11.73;11.43;;;;;;;;;;5026036;28;20472;-71
2024/03/14 08:32:05;;;;;;;12.80;12.40;;;;;;;;;;5020956;28;20466;-70
2024/03/14 08:34:33;;;;;;;12.17;11.80;;;;;;;;;;5015472;28;20975;-70
2024/03/14 08:37:00;;;;;;;12.60;12.20;;;;;;;;;;5025569;28;22310;-73
2024/03/14 08:39:28;;;;;;;12.70;12.30;;;;;;;;;;5017719;28;20470;-73
2024/03/14 08:41:57;;;;;;;12.00;11.70;;;;;;;;;;5024073;28;20462;-73
2024/03/14 08:44:26;;;;;;;12.80;12.40;;;;;;;;;;5016788;28;20472;-72
2024/03/14 08:46:53;;;;;;;12.50;12.10;;;;;;;;;;5013054;28;20469;-72
2024/03/14 08:49:21;;;;;;;13.10;12.70;;;;;;;;;;5030065;28;21058;-71
2024/03/14 08:51:48;;;;;;;13.13;12.73;;;;;;;;;;5030268;28;20469;-71
2024/03/14 08:54:29;;;;;;;13.50;13.10;;;;;;;;;;5016496;28;20464;-72
2024/03/14 08:56:59;;;;;;;13.83;13.33;;;;;;;;;;5014600;28;20500;-72
2024/03/14 08:59:28;;;;;;;13.20;12.80;;;;;;;;;;5014374;28;20923;-71
2024/03/14 09:01:56;;;;;;;14.20;13.70;;;;;;;;;;5013593;28;20860;-73
2024/03/14 09:04:23;;;;;;;14.17;13.67;;;;;;;;;;4980758;28;20925;-72
2024/03/14 09:06:53;;;;;;;14.00;13.50;;;;;;;;;;4957119;28;20815;-71
2024/03/14 09:09:34;;;;;;;14.10;13.60;;;;;;;;;;4954434;28;20613;-71
2024/03/14 09:12:09;;;;;;;14.43;13.93;;;;;;;;;;4954291;28;20459;-73
2024/03/14 09:14:36;;;;;;;14.30;13.80;;;;;;;;;;4956904;28;20476;-71
2024/03/14 09:17:04;;;;;;;14.23;13.73;;;;;;;;;;4955177;28;20476;-73
2024/03/14 09:19:32;;;;;;;14.30;13.80;;;;;;;;;;4958079;28;20515;-72
2024/03/14 09:21:59;;;;;;;14.27;13.77;;;;;;;;;;4954500;28;20468;-73
2024/03/14 09:24:26;;;;;;;14.60;14.10;;;;;;;;;;4961198;28;21273;-73
2024/03/14 09:26:54;;;;;;;14.40;13.90;;;;;;;;;;4957591;28;20492;-71
2024/03/14 09:29:23;;;;;;;13.97;13.50;;;;;;;;;;4954745;28;20499;-71
2024/03/14 09:31:50;;;;;;;14.07;13.57;;;;;;;;;;4950651;28;20480;-71
2024/03/14 09:34:19;;;;;;;13.60;13.20;;;;;;;;;;4957174;28;20475;-72
2024/03/14 09:36:50;;;;;;;13.60;13.20;;;;;;;;;;4956681;28;20512;-70
2024/03/14 09:39:19;;;;;;;14.03;13.53;;;;;;;;;;4956049;28;20986;-71
2024/03/14 09:41:46;;;;;;;14.37;13.87;;;;;;;;;;4956107;28;20464;-72
2024/03/14 09:44:13;;;;;;;14.00;13.50;;;;;;;;;;4958306;28;20469;-73
2024/03/14 09:46:41;;;;;;;14.00;13.50;;;;;;;;;;4953065;28;20480;-70
2024/03/14 09:49:11;;;;;;;14.67;14.17;;;;;;;;;;4953330;28;20555;-72
2024/03/14 09:51:38;;;;;;;14.60;14.10;;;;;;;;;;4956928;28;21123;-70
2024/03/14 09:54:06;;;;;;;15.33;14.73;;;;;;;;;;4956345;28;20459;-72
2024/03/14 09:56:34;;;;;;;14.60;14.10;;;;;;;;;;4956349;28;20481;-69
2024/03/14 09:59:01;;;;;;;14.53;14.03;;;;;;;;;;4953101;28;20576;-71
2024/03/14 10:01:28;;;;;;;14.17;13.67;;;;;;;;;;4955455;28;21007;-72
2024/03/14 10:03:57;;;;;;;14.40;13.90;;;;;;;;;;4956754;28;20472;-72
2024/03/14 10:06:24;;;;;;;14.10;13.60;;;;;;;;;;4956935;28;20517;-69
2024/03/14 10:08:51;;;;;;;14.60;14.10;;;;;;;;;;4955112;28;20503;-71
2024/03/14 10:11:20;;;;;;;14.10;13.60;;;;;;;;;;4955504;28;20470;-71
2024/03/14 10:13:47;;;;;;;14.20;13.70;;;;;;;;;;4956587;28;21014;-72
2024/03/14 10:16:17;;;;;;;14.10;13.60;;;;;;;;;;4952853;28;20825;-70
2024/03/14 10:18:46;;;;;;;14.20;13.70;;;;;;;;;;4955312;28;20477;-69
2024/03/14 10:21:13;;;;;;;14.60;14.10;;;;;;;;;;4956392;28;20849;-71
2024/03/14 10:23:41;;;;;;;14.73;14.23;;;;;;;;;;4956269;28;20472;-70
2024/03/14 10:26:09;;;;;;;14.70;14.20;;;;;;;;;;4955673;28;20474;-71
2024/03/14 10:28:39;;;;;;;14.43;13.93;;;;;;;;;;4952466;28;21052;-72
2024/03/14 10:31:08;;;;;;;14.57;14.07;;;;;;;;;;4952516;28;20921;-72
2024/03/14 10:33:37;;;;;;;14.30;13.80;;;;;;;;;;4953949;28;20577;-70
2024/03/14 10:36:04;;;;;;;14.70;14.20;;;;;;;;;;4954184;28;20985;-70
2024/03/14 10:38:35;;;;;;;14.40;13.90;;;;;;;;;;4954433;28;20476;-70
2024/03/14 10:41:05;;;;;;;14.47;13.97;;;;;;;;;;4950625;28;20470;-72
2024/03/14 10:43:33;;;;;;;14.20;13.70;;;;;;;;;;4955531;28;21154;-70
2024/03/14 10:46:01;;;;;;;14.50;14.00;;;;;;;;;;4952383;28;20471;-71
2024/03/14 10:48:28;;;;;;;14.67;14.17;;;;;;;;;;4954663;28;20872;-69
2024/03/14 10:50:56;;;;;;;15.10;14.60;;;;;;;;;;4955689;28;20472;-70
2024/03/14 10:53:24;;;;;;;15.00;14.50;;;;;;;;;;4954071;28;20824;-69
2024/03/14 10:55:51;;;;;;;15.03;14.50;;;;;;;;;;4961734;28;20474;-69
2024/03/14 10:58:19;;;;;;;15.17;14.60;;;;;;;;;;4952248;28;20942;-71
2024/03/14 11:00:46;;;;;;;14.83;14.33;;;;;;;;;;4956116;28;20492;-70
2024/03/14 11:03:18;;;;;;;15.40;14.80;;;;;;;;;;4953752;28;20474;-72
2024/03/14 11:05:48;;;;;;;14.90;14.40;;;;;;;;;;4954897;28;21036;-70
2024/03/14 11:08:16;;;;;;;14.90;14.40;;;;;;;;;;4955380;28;20863;-69
2024/03/14 11:10:43;;;;;;;15.67;15.07;;;;;;;;;;4954874;28;20528;-71
2024/03/14 11:13:14;;;;;;;15.70;15.10;;;;;;;;;;4952313;28;20589;-71
2024/03/14 11:15:42;;;;;;;14.97;14.47;;;;;;;;;;4952975;28;20481;-69
2024/03/14 11:18:13;;;;;;;14.60;14.10;;;;;;;;;;4962005;28;20480;-69
2024/03/14 11:20:40;;;;;;;14.70;14.20;;;;;;;;;;4954531;28;20526;-70
2024/03/14 11:23:09;;;;;;;14.90;14.40;;;;;;;;;;4954239;28;20474;-69
2024/03/14 11:25:37;;;;;;;15.23;14.63;;;;;;;;;;4954247;28;20516;-69
2024/03/14 11:28:04;;;;;;;15.20;14.60;;;;;;;;;;4951443;28;20866;-71
2024/03/14 11:30:32;;;;;;;15.90;15.30;;;;;;;;;;4952308;28;20486;-68
2024/03/14 11:32:59;;;;;;;16.10;15.50;;;;;;;;;;4956754;28;20949;-70
2024/03/14 11:35:42;;;;;;;16.00;15.40;;;;;;;;;;4952799;28;20512;-69
2024/03/14 11:38:24;;;;;;;16.00;15.40;;;;;;;;;;4954584;28;20475;-72
2024/03/14 11:40:52;;;;;;;16.27;15.63;;;;;;;;;;4953613;28;20501;-68
2024/03/14 11:43:20;;;;;;;15.80;15.20;;;;;;;;;;4955458;28;20534;-69
2024/03/14 11:45:49;;;;;;;16.33;15.67;;;;;;;;;;4950103;28;22299;-71
2024/03/14 11:48:19;;;;;;;16.57;15.87;;;;;;;;;;4950650;28;20816;-70
2024/03/14 11:50:47;;;;;;;16.60;15.90;;;;;;;;;;4955669;28;20472;-69
2024/03/14 11:53:14;;;;;;;17.00;16.30;;;;;;;;;;4954324;28;20556;-69
2024/03/14 11:55:43;;;;;;;17.40;16.70;;;;;;;;;;4954822;28;20825;-69
2024/03/14 11:58:16;;;;;;;17.07;16.37;;;;;;;;;;4966585;28;20463;-69
2024/03/14 12:00:44;;;;;;;16.93;16.23;;;;;;;;;;4957195;28;20493;-69
2024/03/14 12:03:12;;;;;;;16.93;16.23;;;;;;;;;;4963353;28;21076;-69
2024/03/14 12:05:44;;;;;;;17.17;16.47;;;;;;;;;;4966843;28;20460;-69
2024/03/14 12:08:12;;;;;;;16.90;16.20;;;;;;;;;;4966644;28;20475;-69
2024/03/14 12:10:39;;;;;;;15.90;15.30;;;;;;;;;;4958719;28;20493;-69
2024/03/14 12:13:06;;;;;;;16.53;15.93;;;;;;;;;;4949305;28;21129;-70
2024/03/14 12:15:36;;;;;;;16.50;15.87;;;;;;;;;;4950686;28;20470;-69
2024/03/14 12:18:04;;;;;;;17.73;17.03;;;;;;;;;;4958475;28;20472;-70
2024/03/14 12:20:32;;;;;;;17.80;17.00;;;;;;;;;;4960428;28;20475;-70
2024/03/14 12:23:00;;;;;;;17.20;16.50;;;;;;;;;;4974893;28;20465;-72
2024/03/14 12:25:27;;;;;;;17.10;16.40;;;;;;;;;;4964631;28;20550;-72
2024/03/14 12:27:55;;;;;;;17.10;16.40;;;;;;;;;;4955480;28;20500;-70
2024/03/14 12:30:23;;;;;;;16.87;16.17;;;;;;;;;;4956557;28;21834;-72
2024/03/14 12:32:56;;;;;;;17.23;16.53;;;;;;;;;;4973294;28;20831;-69
2024/03/14 12:35:23;;;;;;;17.23;16.53;;;;;;;;;;4965375;28;20858;-70
2024/03/14 12:37:52;;;;;;;17.47;16.77;;;;;;;;;;4959406;28;20850;-71
2024/03/14 12:40:21;;;;;;;17.10;16.40;;;;;;;;;;4959007;28;20859;-70
2024/03/14 12:42:48;;;;;;;16.63;16.03;;;;;;;;;;4962101;28;20974;-70
2024/03/14 12:45:16;;;;;;;17.10;16.40;;;;;;;;;;4969632;28;20898;-69
2024/03/14 12:47:44;;;;;;;17.73;17.03;;;;;;;;;;4950243;28;20797;-69
2024/03/14 12:50:21;;;;;;;17.50;16.80;;;;;;;;;;4963828;28;20597;-70
2024/03/14 12:53:01;;;;;;;17.80;17.10;;;;;;;;;;4959391;28;20853;-69
2024/03/14 12:55:29;;;;;;;18.30;17.60;;;;;;;;;;4957511;28;20462;-70
2024/03/14 12:57:57;;;;;;;17.47;16.77;;;;;;;;;;4957045;28;22521;-70
2024/03/14 13:00:26;;;;;;;17.73;17.03;;;;;;;;;;4959997;28;20487;-70
2024/03/14 13:02:55;;;;;;;17.83;17.13;;;;;;;;;;4945740;28;21021;-70
2024/03/14 13:05:25;;;;;;;17.87;17.17;;;;;;;;;;4970164;28;20462;-70
2024/03/14 13:08:05;;;;;;;17.40;16.70;;;;;;;;;;4963911;28;20478;-72
2024/03/14 13:10:35;;;;;;;17.80;17.10;;;;;;;;;;4965621;28;20515;-70
2024/03/14 13:13:03;;;;;;;17.40;16.80;;;;;;;;;;4969841;28;20538;-70
2024/03/14 13:15:33;;;;;;;17.63;16.93;;;;;;;;;;4968639;28;20491;-73
2024/03/14 13:18:04;;;;;;;18.47;17.70;;;;;;;;;;4967271;28;20464;-69
2024/03/14 13:20:31;;;;;;;17.50;16.80;;;;;;;;;;4968533;28;20573;-71
2024/03/14 13:22:59;;;;;;;17.67;16.97;;;;;;;;;;4961560;28;20782;-70
2024/03/14 13:25:26;;;;;;;18.07;17.37;;;;;;;;;;4964205;28;20555;-70
2024/03/14 13:27:54;;;;;;;17.53;16.83;;;;;;;;;;4958759;28;20468;-70
2024/03/14 13:30:21;;;;;;;18.20;17.50;;;;;;;;;;4961589;28;20567;-70
2024/03/14 13:32:54;;;;;;;18.70;17.90;;;;;;;;;;4965162;28;20554;-70
2024/03/14 13:35:23;;;;;;;18.00;17.30;;;;;;;;;;4958610;28;20504;-70
2024/03/14 13:37:50;;;;;;;17.93;17.23;;;;;;;;;;4969085;28;20460;-73
2024/03/14 13:40:19;;;;;;;18.80;18.10;;;;;;;;;;4968994;28;20498;-71
2024/03/14 13:42:46;;;;;;;17.90;17.20;;;;;;;;;;4963742;28;20507;-72
2024/03/14 13:45:17;;;;;;;18.30;17.60;;;;;;;;;;4967394;28;20467;-70
2024/03/14 13:47:46;;;;;;;18.23;17.53;;;;;;;;;;4956449;28;20469;-72
2024/03/14 13:50:14;;;;;;;18.60;17.90;;;;;;;;;;4968574;28;20503;-71
2024/03/14 13:52:41;;;;;;;17.80;17.10;;;;;;;;;;4968197;28;20555;-71
2024/03/14 13:55:24;;;;;;;18.00;17.30;;;;;;;;;;4973759;28;20459;-71
2024/03/14 13:57:51;;;;;;;18.40;17.70;;;;;;;;;;4968216;28;20459;-71
2024/03/14 14:00:25;;;;;;;18.40;17.70;;;;;;;;;;4965196;28;20523;-71
2024/03/14 14:02:56;;;;;;;18.50;17.80;;;;;;;;;;4970292;28;20845;-71
2024/03/14 14:05:25;;;;;;;18.30;17.60;;;;;;;;;;4967207;28;20478;-72
2024/03/14 14:07:54;;;;;;;17.87;17.17;;;;;;;;;;4958976;28;20499;-71
2024/03/14 14:10:21;;;;;;;18.20;17.50;;;;;;;;;;4968566;28;20557;-73
2024/03/14 14:12:48;;;;;;;17.93;17.23;;;;;;;;;;4962849;28;20576;-71
2024/03/14 14:15:16;;;;;;;17.90;17.20;;;;;;;;;;4971168;28;20849;-72
2024/03/14 14:17:43;;;;;;;18.10;17.40;;;;;;;;;;4965780;28;20913;-74
2024/03/14 14:20:13;;;;;;;17.00;16.40;;;;;;;;;;4960473;28;20470;-71
2024/03/14 14:22:42;;;;;;;17.27;16.57;;;;;;;;;;4957090;28;20851;-72
2024/03/14 14:25:12;;;;;;;17.83;17.13;;;;;;;;;;4965327;28;20458;-71
2024/03/14 14:27:39;;;;;;;18.10;17.40;;;;;;;;;;4967372;28;20939;-74
2024/03/14 14:30:16;;;;;;;17.73;17.03;;;;;;;;;;4967790;28;20878;-72
2024/03/14 14:32:44;;;;;;;17.17;16.53;;;;;;;;;;4962147;28;20553;-73
2024/03/14 14:35:12;;;;;;;17.30;16.60;;;;;;;;;;4970885;28;20531;-72
2024/03/14 14:37:40;;;;;;;17.50;16.80;;;;;;;;;;4960684;28;20540;-72
2024/03/14 14:40:09;;;;;;;17.77;17.07;;;;;;;;;;4961764;28;20549;-71